sensor_id;sensor_type;location;lat;lon;timestamp;P1;durP1;ratioP1;P2;durP2;ratioP2
15667;SDS011;7934;48.710;9.024;2023-01-28T00:00:12;11.20;;;8.57;;
15667;SDS011;7934;48.710;9.024;2023-01-28T00:02:39;9.50;;;8.50;;
15667;SDS011;7934;48.710;9.024;2023-01-28T00:05:06;9.57;;;8.50;;
15667;SDS011;7934;48.710;9.024;2023-01-28T00:07:34;10.63;;;8.80;;
15667;SDS011;7934;48.710;9.024;2023-01-28T00:10:01;10.25;;;8.75;;
15667;SDS011;7934;48.710;9.024;2023-01-28T00:12:29;9.57;;;8.57;;
15667;SDS011;7934;48.710;9.024;2023-01-28T00:14:56;10.50;;;9.27;;
15667;SDS011;7934;48.710;9.024;2023-01-28T00:17:24;9.43;;;8.52;;
15667;SDS011;7934;48.710;9.024;2023-01-28T00:19:51;10.50;;;8.82;;
15667;SDS011;7934;48.710;9.024;2023-01-28T00:22:18;11.00;;;9.77;;
15667;SDS011;7934;48.710;9.024;2023-01-28T00:24:45;9.88;;;8.80;;
15667;SDS011;7934;48.710;9.024;2023-01-28T00:27:12;9.27;;;8.38;;
15667;SDS011;7934;48.710;9.024;2023-01-28T00:29:41;8.73;;;7.83;;
15667;SDS011;7934;48.710;9.024;2023-01-28T00:32:08;9.02;;;8.13;;
15667;SDS011;7934;48.710;9.024;2023-01-28T00:34:35;9.30;;;8.40;;
15667;SDS011;7934;48.710;9.024;2023-01-28T00:37:02;8.85;;;7.95;;
15667;SDS011;7934;48.710;9.024;2023-01-28T00:39:30;9.60;;;8.60;;
15667;SDS011;7934;48.710;9.024;2023-01-28T00:41:57;10.27;;;8.80;;
15667;SDS011;7934;48.710;9.024;2023-01-28T00:44:24;9.75;;;8.75;;
15667;SDS011;7934;48.710;9.024;2023-01-28T00:46:53;9.55;;;8.27;;
15667;SDS011;7934;48.710;9.024;2023-01-28T00:49:20;9.55;;;8.55;;
15667;SDS011;7934;48.710;9.024;2023-01-28T00:51:47;9.63;;;8.48;;
15667;SDS011;7934;48.710;9.024;2023-01-28T00:54:14;8.93;;;8.10;;
15667;SDS011;7934;48.710;9.024;2023-01-28T00:56:42;9.63;;;8.65;;
15667;SDS011;7934;48.710;9.024;2023-01-28T00:59:09;9.10;;;8.20;;
15667;SDS011;7934;48.710;9.024;2023-01-28T01:01:36;8.82;;;7.93;;
15667;SDS011;7934;48.710;9.024;2023-01-28T01:04:04;8.98;;;8.07;;
15667;SDS011;7934;48.710;9.024;2023-01-28T01:06:33;8.60;;;7.80;;
15667;SDS011;7934;48.710;9.024;2023-01-28T01:09:00;10.10;;;7.90;;
15667;SDS011;7934;48.710;9.024;2023-01-28T01:11:27;8.70;;;7.80;;
15667;SDS011;7934;48.710;9.024;2023-01-28T01:13:55;8.75;;;7.85;;
15667;SDS011;7934;48.710;9.024;2023-01-28T01:16:23;8.80;;;7.90;;
15667;SDS011;7934;48.710;9.024;2023-01-28T01:18:50;8.68;;;7.85;;
15667;SDS011;7934;48.710;9.024;2023-01-28T01:21:20;9.43;;;8.13;;
15667;SDS011;7934;48.710;9.024;2023-01-28T01:23:47;8.98;;;8.07;;
15667;SDS011;7934;48.710;9.024;2023-01-28T01:26:15;8.18;;;7.38;;
15667;SDS011;7934;48.710;9.024;2023-01-28T01:28:42;9.63;;;8.07;;
15667;SDS011;7934;48.710;9.024;2023-01-28T01:31:10;8.75;;;7.93;;
15667;SDS011;7934;48.710;9.024;2023-01-28T01:33:38;8.20;;;7.40;;
15667;SDS011;7934;48.710;9.024;2023-01-28T01:36:06;8.50;;;7.60;;
15667;SDS011;7934;48.710;9.024;2023-01-28T01:38:35;8.30;;;7.43;;
15667;SDS011;7934;48.710;9.024;2023-01-28T01:41:03;9.32;;;8.43;;
15667;SDS011;7934;48.710;9.024;2023-01-28T01:43:47;8.50;;;7.70;;
15667;SDS011;7934;48.710;9.024;2023-01-28T01:46:14;8.70;;;7.85;;
15667;SDS011;7934;48.710;9.024;2023-01-28T01:48:42;9.00;;;8.10;;
15667;SDS011;7934;48.710;9.024;2023-01-28T01:51:11;8.80;;;7.77;;
15667;SDS011;7934;48.710;9.024;2023-01-28T01:53:41;8.73;;;7.80;;
15667;SDS011;7934;48.710;9.024;2023-01-28T01:56:10;8.55;;;7.70;;
15667;SDS011;7934;48.710;9.024;2023-01-28T01:58:38;9.30;;;8.35;;
15667;SDS011;7934;48.710;9.024;2023-01-28T02:01:08;9.65;;;8.32;;
15667;SDS011;7934;48.710;9.024;2023-01-28T02:03:37;9.57;;;8.65;;
15667;SDS011;7934;48.710;9.024;2023-01-28T02:06:06;9.38;;;8.48;;
15667;SDS011;7934;48.710;9.024;2023-01-28T02:08:34;10.07;;;8.55;;
15667;SDS011;7934;48.710;9.024;2023-01-28T02:11:03;10.82;;;9.27;;
15667;SDS011;7934;48.710;9.024;2023-01-28T02:13:32;11.18;;;8.90;;
15667;SDS011;7934;48.710;9.024;2023-01-28T02:16:00;10.30;;;9.13;;
15667;SDS011;7934;48.710;9.024;2023-01-28T02:18:29;10.00;;;8.98;;
15667;SDS011;7934;48.710;9.024;2023-01-28T02:23:49;11.68;;;9.38;;
15667;SDS011;7934;48.710;9.024;2023-01-28T02:26:44;9.77;;;8.77;;
15667;SDS011;7934;48.710;9.024;2023-01-28T02:29:16;10.15;;;9.00;;
15667;SDS011;7934;48.710;9.024;2023-01-28T02:31:47;11.85;;;9.32;;
15667;SDS011;7934;48.710;9.024;2023-01-28T02:34:17;9.82;;;8.82;;
15667;SDS011;7934;48.710;9.024;2023-01-28T02:36:47;9.43;;;8.23;;
15667;SDS011;7934;48.710;9.024;2023-01-28T02:39:15;9.15;;;7.90;;
15667;SDS011;7934;48.710;9.024;2023-01-28T02:41:45;9.75;;;8.73;;
15667;SDS011;7934;48.710;9.024;2023-01-28T02:44:13;9.20;;;8.30;;
15667;SDS011;7934;48.710;9.024;2023-01-28T02:46:41;9.85;;;8.85;;
15667;SDS011;7934;48.710;9.024;2023-01-28T02:49:27;8.85;;;7.82;;
15667;SDS011;7934;48.710;9.024;2023-01-28T02:52:01;9.27;;;8.38;;
15667;SDS011;7934;48.710;9.024;2023-01-28T02:54:32;9.43;;;8.25;;
15667;SDS011;7934;48.710;9.024;2023-01-28T02:57:04;8.68;;;7.85;;
15667;SDS011;7934;48.710;9.024;2023-01-28T02:59:34;8.80;;;7.87;;
15667;SDS011;7934;48.710;9.024;2023-01-28T03:02:09;8.75;;;7.85;;
15667;SDS011;7934;48.710;9.024;2023-01-28T03:04:39;8.60;;;7.70;;
15667;SDS011;7934;48.710;9.024;2023-01-28T03:07:07;8.93;;;8.02;;
15667;SDS011;7934;48.710;9.024;2023-01-28T03:09:36;8.80;;;7.90;;
15667;SDS011;7934;48.710;9.024;2023-01-28T03:12:04;9.27;;;7.97;;
15667;SDS011;7934;48.710;9.024;2023-01-28T03:14:50;9.50;;;8.43;;
15667;SDS011;7934;48.710;9.024;2023-01-28T03:17:38;8.98;;;8.07;;
15667;SDS011;7934;48.710;9.024;2023-01-28T03:20:26;9.02;;;8.07;;
15667;SDS011;7934;48.710;9.024;2023-01-28T03:23:13;9.15;;;8.25;;
15667;SDS011;7934;48.710;9.024;2023-01-28T03:26:00;9.30;;;8.18;;
15667;SDS011;7934;48.710;9.024;2023-01-28T03:28:47;10.43;;;9.05;;
15667;SDS011;7934;48.710;9.024;2023-01-28T03:31:33;9.95;;;8.73;;
15667;SDS011;7934;48.710;9.024;2023-01-28T03:34:20;11.43;;;9.15;;
15667;SDS011;7934;48.710;9.024;2023-01-28T03:37:06;12.55;;;9.98;;
15667;SDS011;7934;48.710;9.024;2023-01-28T03:39:34;11.00;;;9.52;;
15667;SDS011;7934;48.710;9.024;2023-01-28T03:42:02;11.57;;;9.68;;
15667;SDS011;7934;48.710;9.024;2023-01-28T03:44:29;11.50;;;9.88;;
15667;SDS011;7934;48.710;9.024;2023-01-28T03:47:16;12.67;;;10.13;;
15667;SDS011;7934;48.710;9.024;2023-01-28T03:49:46;11.65;;;10.05;;
15667;SDS011;7934;48.710;9.024;2023-01-28T03:52:14;11.55;;;9.88;;
15667;SDS011;7934;48.710;9.024;2023-01-28T03:54:42;11.73;;;9.95;;
15667;SDS011;7934;48.710;9.024;2023-01-28T03:57:11;12.55;;;10.63;;
15667;SDS011;7934;48.710;9.024;2023-01-28T03:59:39;11.77;;;10.27;;
15667;SDS011;7934;48.710;9.024;2023-01-28T04:02:06;15.50;;;10.90;;
15667;SDS011;7934;48.710;9.024;2023-01-28T04:04:35;14.10;;;10.98;;
15667;SDS011;7934;48.710;9.024;2023-01-28T04:07:03;13.30;;;11.10;;
15667;SDS011;7934;48.710;9.024;2023-01-28T04:09:32;12.35;;;11.00;;
15667;SDS011;7934;48.710;9.024;2023-01-28T04:12:00;11.45;;;10.15;;
15667;SDS011;7934;48.710;9.024;2023-01-28T04:14:27;13.25;;;11.25;;
15667;SDS011;7934;48.710;9.024;2023-01-28T04:16:54;13.00;;;11.60;;
15667;SDS011;7934;48.710;9.024;2023-01-28T04:19:23;12.90;;;10.98;;
15667;SDS011;7934;48.710;9.024;2023-01-28T04:21:50;14.40;;;11.38;;
15667;SDS011;7934;48.710;9.024;2023-01-28T04:24:20;14.18;;;11.93;;
15667;SDS011;7934;48.710;9.024;2023-01-28T04:26:47;13.67;;;11.23;;
15667;SDS011;7934;48.710;9.024;2023-01-28T04:29:14;13.40;;;11.10;;
15667;SDS011;7934;48.710;9.024;2023-01-28T04:31:41;14.65;;;11.52;;
15667;SDS011;7934;48.710;9.024;2023-01-28T04:34:09;16.70;;;11.95;;
15667;SDS011;7934;48.710;9.024;2023-01-28T04:36:36;14.25;;;11.65;;
15667;SDS011;7934;48.710;9.024;2023-01-28T04:39:03;13.98;;;11.93;;
15667;SDS011;7934;48.710;9.024;2023-01-28T04:41:31;13.57;;;11.48;;
15667;SDS011;7934;48.710;9.024;2023-01-28T04:43:59;14.40;;;12.07;;
15667;SDS011;7934;48.710;9.024;2023-01-28T04:46:26;12.40;;;11.10;;
15667;SDS011;7934;48.710;9.024;2023-01-28T04:48:53;14.02;;;11.85;;
15667;SDS011;7934;48.710;9.024;2023-01-28T04:51:20;15.20;;;12.50;;
15667;SDS011;7934;48.710;9.024;2023-01-28T04:53:47;15.10;;;13.02;;
15667;SDS011;7934;48.710;9.024;2023-01-28T04:56:14;15.23;;;12.90;;
15667;SDS011;7934;48.710;9.024;2023-01-28T04:58:43;16.52;;;13.60;;
15667;SDS011;7934;48.710;9.024;2023-01-28T05:01:10;15.85;;;13.23;;
15667;SDS011;7934;48.710;9.024;2023-01-28T05:03:37;16.45;;;13.68;;
15667;SDS011;7934;48.710;9.024;2023-01-28T05:06:04;17.15;;;14.50;;
15667;SDS011;7934;48.710;9.024;2023-01-28T05:08:31;16.80;;;13.68;;
15667;SDS011;7934;48.710;9.024;2023-01-28T05:10:59;17.83;;;15.00;;
15667;SDS011;7934;48.710;9.024;2023-01-28T05:13:26;18.95;;;15.02;;
15667;SDS011;7934;48.710;9.024;2023-01-28T05:15:54;17.17;;;14.13;;
15667;SDS011;7934;48.710;9.024;2023-01-28T05:18:21;15.67;;;13.37;;
15667;SDS011;7934;48.710;9.024;2023-01-28T05:20:48;17.58;;;13.38;;
15667;SDS011;7934;48.710;9.024;2023-01-28T05:23:16;18.65;;;13.57;;
15667;SDS011;7934;48.710;9.024;2023-01-28T05:25:43;15.52;;;12.82;;
15667;SDS011;7934;48.710;9.024;2023-01-28T05:28:10;18.00;;;14.63;;
15667;SDS011;7934;48.710;9.024;2023-01-28T05:30:37;17.50;;;14.23;;
15667;SDS011;7934;48.710;9.024;2023-01-28T05:33:06;16.92;;;13.20;;
15667;SDS011;7934;48.710;9.024;2023-01-28T05:35:33;14.48;;;13.00;;
15667;SDS011;7934;48.710;9.024;2023-01-28T05:38:01;15.93;;;13.48;;
15667;SDS011;7934;48.710;9.024;2023-01-28T05:40:28;16.40;;;14.30;;
15667;SDS011;7934;48.710;9.024;2023-01-28T05:42:55;18.17;;;14.63;;
15667;SDS011;7934;48.710;9.024;2023-01-28T05:45:23;15.88;;;14.18;;
15667;SDS011;7934;48.710;9.024;2023-01-28T05:47:50;17.10;;;13.63;;
15667;SDS011;7934;48.710;9.024;2023-01-28T05:50:18;15.73;;;13.40;;
15667;SDS011;7934;48.710;9.024;2023-01-28T05:52:45;16.80;;;13.75;;
15667;SDS011;7934;48.710;9.024;2023-01-28T05:55:13;16.13;;;13.50;;
15667;SDS011;7934;48.710;9.024;2023-01-28T05:57:40;16.83;;;14.10;;
15667;SDS011;7934;48.710;9.024;2023-01-28T06:00:09;15.70;;;13.70;;
15667;SDS011;7934;48.710;9.024;2023-01-28T06:02:36;15.65;;;13.25;;
15667;SDS011;7934;48.710;9.024;2023-01-28T06:05:03;17.27;;;13.50;;
15667;SDS011;7934;48.710;9.024;2023-01-28T06:07:32;16.25;;;13.38;;
15667;SDS011;7934;48.710;9.024;2023-01-28T06:09:59;16.95;;;13.35;;
15667;SDS011;7934;48.710;9.024;2023-01-28T06:12:26;15.40;;;13.03;;
15667;SDS011;7934;48.710;9.024;2023-01-28T06:14:56;15.90;;;13.37;;
15667;SDS011;7934;48.710;9.024;2023-01-28T06:17:23;15.65;;;12.93;;
15667;SDS011;7934;48.710;9.024;2023-01-28T06:19:51;17.27;;;13.45;;
15667;SDS011;7934;48.710;9.024;2023-01-28T06:22:18;18.65;;;13.77;;
15667;SDS011;7934;48.710;9.024;2023-01-28T06:24:47;17.60;;;13.57;;
15667;SDS011;7934;48.710;9.024;2023-01-28T06:27:14;15.57;;;13.20;;
15667;SDS011;7934;48.710;9.024;2023-01-28T06:29:42;17.35;;;13.98;;
15667;SDS011;7934;48.710;9.024;2023-01-28T06:32:09;16.90;;;13.40;;
15667;SDS011;7934;48.710;9.024;2023-01-28T06:34:36;15.68;;;13.35;;
15667;SDS011;7934;48.710;9.024;2023-01-28T06:37:03;16.53;;;12.90;;
15667;SDS011;7934;48.710;9.024;2023-01-28T06:39:30;15.80;;;13.03;;
15667;SDS011;7934;48.710;9.024;2023-01-28T06:41:59;17.08;;;13.43;;
15667;SDS011;7934;48.710;9.024;2023-01-28T06:44:26;16.00;;;13.40;;
15667;SDS011;7934;48.710;9.024;2023-01-28T06:46:53;17.63;;;13.65;;
15667;SDS011;7934;48.710;9.024;2023-01-28T06:49:20;17.70;;;14.27;;
15667;SDS011;7934;48.710;9.024;2023-01-28T06:51:47;19.55;;;14.32;;
15667;SDS011;7934;48.710;9.024;2023-01-28T06:54:15;19.00;;;13.75;;
15667;SDS011;7934;48.710;9.024;2023-01-28T06:56:42;15.88;;;13.27;;
15667;SDS011;7934;48.710;9.024;2023-01-28T06:59:10;18.23;;;13.48;;
15667;SDS011;7934;48.710;9.024;2023-01-28T07:01:37;16.88;;;13.93;;
15667;SDS011;7934;48.710;9.024;2023-01-28T07:04:04;16.38;;;14.00;;
15667;SDS011;7934;48.710;9.024;2023-01-28T07:06:32;17.30;;;13.43;;
15667;SDS011;7934;48.710;9.024;2023-01-28T07:09:00;17.93;;;13.87;;
15667;SDS011;7934;48.710;9.024;2023-01-28T07:11:27;15.37;;;12.83;;
15667;SDS011;7934;48.710;9.024;2023-01-28T07:13:54;17.75;;;13.60;;
15667;SDS011;7934;48.710;9.024;2023-01-28T07:16:23;14.63;;;12.82;;
15667;SDS011;7934;48.710;9.024;2023-01-28T07:18:50;15.23;;;12.50;;
15667;SDS011;7934;48.710;9.024;2023-01-28T07:21:17;17.63;;;13.55;;
15667;SDS011;7934;48.710;9.024;2023-01-28T07:23:44;17.40;;;13.43;;
15667;SDS011;7934;48.710;9.024;2023-01-28T07:26:11;16.70;;;13.82;;
15667;SDS011;7934;48.710;9.024;2023-01-28T07:28:39;16.38;;;13.35;;
15667;SDS011;7934;48.710;9.024;2023-01-28T07:31:06;15.83;;;13.20;;
15667;SDS011;7934;48.710;9.024;2023-01-28T07:33:35;15.10;;;13.50;;
15667;SDS011;7934;48.710;9.024;2023-01-28T07:36:02;15.60;;;13.47;;
15667;SDS011;7934;48.710;9.024;2023-01-28T07:38:29;14.35;;;12.48;;
15667;SDS011;7934;48.710;9.024;2023-01-28T07:40:56;16.10;;;12.77;;
15667;SDS011;7934;48.710;9.024;2023-01-28T07:43:23;15.32;;;13.00;;
15667;SDS011;7934;48.710;9.024;2023-01-28T07:45:51;16.40;;;13.52;;
15667;SDS011;7934;48.710;9.024;2023-01-28T07:48:18;15.30;;;12.98;;
15667;SDS011;7934;48.710;9.024;2023-01-28T07:50:46;16.38;;;13.82;;
15667;SDS011;7934;48.710;9.024;2023-01-28T07:53:15;14.65;;;12.77;;
15667;SDS011;7934;48.710;9.024;2023-01-28T07:55:43;16.67;;;13.23;;
15667;SDS011;7934;48.710;9.024;2023-01-28T07:58:11;14.38;;;12.88;;
15667;SDS011;7934;48.710;9.024;2023-01-28T08:00:38;15.25;;;12.95;;
15667;SDS011;7934;48.710;9.024;2023-01-28T08:03:06;16.23;;;13.52;;
15667;SDS011;7934;48.710;9.024;2023-01-28T08:05:37;13.83;;;12.27;;
15667;SDS011;7934;48.710;9.024;2023-01-28T08:08:06;15.68;;;12.93;;
15667;SDS011;7934;48.710;9.024;2023-01-28T08:10:33;16.23;;;13.02;;
15667;SDS011;7934;48.710;9.024;2023-01-28T08:13:01;16.00;;;12.85;;
15667;SDS011;7934;48.710;9.024;2023-01-28T08:15:28;14.82;;;13.32;;
15667;SDS011;7934;48.710;9.024;2023-01-28T08:17:56;15.40;;;12.63;;
15667;SDS011;7934;48.710;9.024;2023-01-28T08:20:24;14.90;;;12.77;;
15667;SDS011;7934;48.710;9.024;2023-01-28T08:22:51;15.50;;;13.13;;
15667;SDS011;7934;48.710;9.024;2023-01-28T08:25:20;16.25;;;12.27;;
15667;SDS011;7934;48.710;9.024;2023-01-28T08:27:47;16.63;;;13.93;;
15667;SDS011;7934;48.710;9.024;2023-01-28T08:30:14;15.80;;;13.67;;
15667;SDS011;7934;48.710;9.024;2023-01-28T08:32:41;14.07;;;12.35;;
15667;SDS011;7934;48.710;9.024;2023-01-28T08:35:08;13.63;;;12.23;;
15667;SDS011;7934;48.710;9.024;2023-01-28T08:37:36;15.48;;;13.07;;
15667;SDS011;7934;48.710;9.024;2023-01-28T08:40:03;14.38;;;12.10;;
15667;SDS011;7934;48.710;9.024;2023-01-28T08:42:32;14.88;;;12.82;;
15667;SDS011;7934;48.710;9.024;2023-01-28T08:44:59;16.45;;;12.82;;
15667;SDS011;7934;48.710;9.024;2023-01-28T08:47:27;16.08;;;13.30;;
15667;SDS011;7934;48.710;9.024;2023-01-28T08:49:54;18.00;;;13.75;;
15667;SDS011;7934;48.710;9.024;2023-01-28T08:52:21;14.02;;;12.52;;
15667;SDS011;7934;48.710;9.024;2023-01-28T08:54:49;15.35;;;12.45;;
15667;SDS011;7934;48.710;9.024;2023-01-28T08:57:16;14.40;;;11.90;;
15667;SDS011;7934;48.710;9.024;2023-01-28T08:59:45;15.30;;;12.70;;
15667;SDS011;7934;48.710;9.024;2023-01-28T09:02:12;16.05;;;12.55;;
15667;SDS011;7934;48.710;9.024;2023-01-28T09:04:40;13.70;;;12.30;;
15667;SDS011;7934;48.710;9.024;2023-01-28T09:07:07;15.88;;;13.02;;
15667;SDS011;7934;48.710;9.024;2023-01-28T09:09:34;14.00;;;12.50;;
15667;SDS011;7934;48.710;9.024;2023-01-28T09:12:01;15.60;;;12.95;;
15667;SDS011;7934;48.710;9.024;2023-01-28T09:14:30;15.65;;;13.00;;
15667;SDS011;7934;48.710;9.024;2023-01-28T09:16:58;14.90;;;12.27;;
15667;SDS011;7934;48.710;9.024;2023-01-28T09:19:25;14.82;;;13.02;;
15667;SDS011;7934;48.710;9.024;2023-01-28T09:21:53;14.88;;;13.02;;
15667;SDS011;7934;48.710;9.024;2023-01-28T09:24:20;14.18;;;12.20;;
15667;SDS011;7934;48.710;9.024;2023-01-28T09:26:47;13.88;;;11.05;;
15667;SDS011;7934;48.710;9.024;2023-01-28T09:29:15;12.73;;;11.27;;
15667;SDS011;7934;48.710;9.024;2023-01-28T09:31:44;13.47;;;11.80;;
15667;SDS011;7934;48.710;9.024;2023-01-28T09:34:12;13.07;;;11.73;;
15667;SDS011;7934;48.710;9.024;2023-01-28T09:36:39;14.73;;;11.63;;
15667;SDS011;7934;48.710;9.024;2023-01-28T09:39:06;13.50;;;12.20;;
15667;SDS011;7934;48.710;9.024;2023-01-28T09:41:36;14.48;;;11.98;;
15667;SDS011;7934;48.710;9.024;2023-01-28T09:44:13;14.18;;;12.10;;
15667;SDS011;7934;48.710;9.024;2023-01-28T09:46:46;14.32;;;12.23;;
15667;SDS011;7934;48.710;9.024;2023-01-28T09:49:16;12.90;;;11.63;;
15667;SDS011;7934;48.710;9.024;2023-01-28T09:51:46;12.98;;;11.65;;
15667;SDS011;7934;48.710;9.024;2023-01-28T09:54:19;14.35;;;12.15;;
15667;SDS011;7934;48.710;9.024;2023-01-28T09:56:47;13.73;;;12.27;;
15667;SDS011;7934;48.710;9.024;2023-01-28T09:59:18;13.77;;;12.38;;
15667;SDS011;7934;48.710;9.024;2023-01-28T10:01:46;14.30;;;12.63;;
15667;SDS011;7934;48.710;9.024;2023-01-28T10:04:20;12.75;;;11.40;;
15667;SDS011;7934;48.710;9.024;2023-01-28T10:06:53;14.88;;;12.93;;
15667;SDS011;7934;48.710;9.024;2023-01-28T10:09:27;13.43;;;11.75;;
15667;SDS011;7934;48.710;9.024;2023-01-28T10:12:08;13.70;;;11.50;;
15667;SDS011;7934;48.710;9.024;2023-01-28T10:14:40;14.63;;;11.45;;
15667;SDS011;7934;48.710;9.024;2023-01-28T10:17:10;16.73;;;13.68;;
15667;SDS011;7934;48.710;9.024;2023-01-28T10:19:41;13.65;;;12.18;;
15667;SDS011;7934;48.710;9.024;2023-01-28T10:22:11;14.93;;;11.98;;
15667;SDS011;7934;48.710;9.024;2023-01-28T10:24:40;18.35;;;13.77;;
15667;SDS011;7934;48.710;9.024;2023-01-28T10:27:09;16.25;;;13.18;;
15667;SDS011;7934;48.710;9.024;2023-01-28T10:29:38;18.42;;;14.40;;
15667;SDS011;7934;48.710;9.024;2023-01-28T10:32:14;15.55;;;12.82;;
15667;SDS011;7934;48.710;9.024;2023-01-28T10:34:43;14.93;;;12.67;;
15667;SDS011;7934;48.710;9.024;2023-01-28T10:37:11;15.95;;;13.77;;
15667;SDS011;7934;48.710;9.024;2023-01-28T10:39:38;16.70;;;13.52;;
15667;SDS011;7934;48.710;9.024;2023-01-28T10:42:11;15.32;;;13.43;;
15667;SDS011;7934;48.710;9.024;2023-01-28T10:44:42;15.35;;;13.30;;
15667;SDS011;7934;48.710;9.024;2023-01-28T10:47:11;15.73;;;13.60;;
15667;SDS011;7934;48.710;9.024;2023-01-28T10:49:41;16.23;;;14.20;;
15667;SDS011;7934;48.710;9.024;2023-01-28T10:52:11;16.90;;;13.80;;
15667;SDS011;7934;48.710;9.024;2023-01-28T10:54:38;20.63;;;14.82;;
15667;SDS011;7934;48.710;9.024;2023-01-28T10:57:08;15.23;;;13.57;;
15667;SDS011;7934;48.710;9.024;2023-01-28T10:59:36;16.52;;;14.70;;
15667;SDS011;7934;48.710;9.024;2023-01-28T11:02:18;16.17;;;13.30;;
15667;SDS011;7934;48.710;9.024;2023-01-28T11:04:45;17.55;;;14.02;;
15667;SDS011;7934;48.710;9.024;2023-01-28T11:07:16;18.73;;;14.27;;
15667;SDS011;7934;48.710;9.024;2023-01-28T11:09:44;15.25;;;13.55;;
15667;SDS011;7934;48.710;9.024;2023-01-28T11:12:18;16.83;;;13.95;;
15667;SDS011;7934;48.710;9.024;2023-01-28T11:14:48;17.00;;;14.05;;
15667;SDS011;7934;48.710;9.024;2023-01-28T11:17:16;16.88;;;13.43;;
15667;SDS011;7934;48.710;9.024;2023-01-28T11:19:44;16.83;;;14.15;;
15667;SDS011;7934;48.710;9.024;2023-01-28T11:22:13;16.60;;;13.63;;
15667;SDS011;7934;48.710;9.024;2023-01-28T11:24:48;15.10;;;13.50;;
15667;SDS011;7934;48.710;9.024;2023-01-28T11:27:16;15.15;;;12.98;;
15667;SDS011;7934;48.710;9.024;2023-01-28T11:29:44;17.00;;;13.55;;
15667;SDS011;7934;48.710;9.024;2023-01-28T11:32:17;14.88;;;13.20;;
15667;SDS011;7934;48.710;9.024;2023-01-28T11:34:48;14.30;;;12.00;;
15667;SDS011;7934;48.710;9.024;2023-01-28T11:37:15;15.52;;;13.02;;
15667;SDS011;7934;48.710;9.024;2023-01-28T11:39:42;14.25;;;12.15;;
15667;SDS011;7934;48.710;9.024;2023-01-28T11:42:13;13.75;;;12.10;;
15667;SDS011;7934;48.710;9.024;2023-01-28T11:44:41;14.05;;;12.13;;
15667;SDS011;7934;48.710;9.024;2023-01-28T11:47:18;14.43;;;11.52;;
15667;SDS011;7934;48.710;9.024;2023-01-28T11:49:55;12.82;;;11.43;;
15667;SDS011;7934;48.710;9.024;2023-01-28T11:52:27;13.88;;;12.38;;
15667;SDS011;7934;48.710;9.024;2023-01-28T11:55:01;15.60;;;12.25;;
15667;SDS011;7934;48.710;9.024;2023-01-28T11:57:34;15.50;;;12.75;;
15667;SDS011;7934;48.710;9.024;2023-01-28T12:02:58;14.77;;;12.95;;
15667;SDS011;7934;48.710;9.024;2023-01-28T12:05:32;14.38;;;12.85;;
15667;SDS011;7934;48.710;9.024;2023-01-28T12:08:02;14.07;;;12.25;;
15667;SDS011;7934;48.710;9.024;2023-01-28T12:10:35;14.37;;;12.73;;
15667;SDS011;7934;48.710;9.024;2023-01-28T12:13:11;15.13;;;12.68;;
15667;SDS011;7934;48.710;9.024;2023-01-28T12:15:50;15.63;;;13.10;;
15667;SDS011;7934;48.710;9.024;2023-01-28T12:18:27;16.20;;;13.30;;
15667;SDS011;7934;48.710;9.024;2023-01-28T12:21:00;16.23;;;13.50;;
15667;SDS011;7934;48.710;9.024;2023-01-28T12:23:34;17.52;;;14.10;;
15667;SDS011;7934;48.710;9.024;2023-01-28T12:26:08;16.05;;;13.05;;
15667;SDS011;7934;48.710;9.024;2023-01-28T12:28:40;15.90;;;12.88;;
15667;SDS011;7934;48.710;9.024;2023-01-28T12:31:13;17.88;;;12.88;;
15667;SDS011;7934;48.710;9.024;2023-01-28T12:33:52;17.70;;;14.02;;
15667;SDS011;7934;48.710;9.024;2023-01-28T12:36:25;16.13;;;13.27;;
15667;SDS011;7934;48.710;9.024;2023-01-28T12:38:58;15.48;;;13.52;;
15667;SDS011;7934;48.710;9.024;2023-01-28T12:41:30;17.95;;;13.43;;
15667;SDS011;7934;48.710;9.024;2023-01-28T12:44:00;18.73;;;13.93;;
15667;SDS011;7934;48.710;9.024;2023-01-28T12:46:31;17.38;;;14.27;;
15667;SDS011;7934;48.710;9.024;2023-01-28T12:49:02;18.02;;;14.02;;
15667;SDS011;7934;48.710;9.024;2023-01-28T12:51:31;16.17;;;13.52;;
15667;SDS011;7934;48.710;9.024;2023-01-28T12:54:01;19.48;;;15.45;;
15667;SDS011;7934;48.710;9.024;2023-01-28T12:56:32;18.02;;;14.48;;
15667;SDS011;7934;48.710;9.024;2023-01-28T12:59:02;17.13;;;13.90;;
15667;SDS011;7934;48.710;9.024;2023-01-28T13:01:34;18.88;;;15.00;;
15667;SDS011;7934;48.710;9.024;2023-01-28T13:04:04;18.92;;;15.10;;
15667;SDS011;7934;48.710;9.024;2023-01-28T13:06:34;18.63;;;15.15;;
15667;SDS011;7934;48.710;9.024;2023-01-28T13:09:09;18.25;;;14.75;;
15667;SDS011;7934;48.710;9.024;2023-01-28T13:11:37;18.83;;;15.02;;
15667;SDS011;7934;48.710;9.024;2023-01-28T13:14:08;19.17;;;15.10;;
15667;SDS011;7934;48.710;9.024;2023-01-28T13:16:38;20.65;;;15.32;;
15667;SDS011;7934;48.710;9.024;2023-01-28T13:19:06;18.85;;;14.60;;
15667;SDS011;7934;48.710;9.024;2023-01-28T13:21:34;23.67;;;16.00;;
15667;SDS011;7934;48.710;9.024;2023-01-28T13:24:04;19.17;;;14.63;;
15667;SDS011;7934;48.710;9.024;2023-01-28T13:26:36;20.63;;;15.13;;
15667;SDS011;7934;48.710;9.024;2023-01-28T13:29:14;15.77;;;13.00;;
15667;SDS011;7934;48.710;9.024;2023-01-28T13:31:44;16.67;;;12.83;;
15667;SDS011;7934;48.710;9.024;2023-01-28T13:34:24;17.08;;;13.75;;
15667;SDS011;7934;48.710;9.024;2023-01-28T13:36:53;14.43;;;11.70;;
15667;SDS011;7934;48.710;9.024;2023-01-28T13:39:21;17.65;;;13.73;;
15667;SDS011;7934;48.710;9.024;2023-01-28T13:41:51;15.93;;;13.43;;
15667;SDS011;7934;48.710;9.024;2023-01-28T13:44:25;17.73;;;13.63;;
15667;SDS011;7934;48.710;9.024;2023-01-28T13:46:54;17.08;;;12.57;;
15667;SDS011;7934;48.710;9.024;2023-01-28T13:49:23;18.17;;;12.98;;
15667;SDS011;7934;48.710;9.024;2023-01-28T13:51:55;12.95;;;11.45;;
15667;SDS011;7934;48.710;9.024;2023-01-28T13:54:24;13.98;;;11.35;;
15667;SDS011;7934;48.710;9.024;2023-01-28T13:56:55;14.73;;;11.55;;
15667;SDS011;7934;48.710;9.024;2023-01-28T13:59:32;14.25;;;11.40;;
15667;SDS011;7934;48.710;9.024;2023-01-28T14:02:13;13.77;;;10.70;;
15667;SDS011;7934;48.710;9.024;2023-01-28T14:04:51;13.65;;;10.90;;
15667;SDS011;7934;48.710;9.024;2023-01-28T14:07:27;10.52;;;8.93;;
15667;SDS011;7934;48.710;9.024;2023-01-28T14:10:02;10.63;;;9.25;;
15667;SDS011;7934;48.710;9.024;2023-01-28T14:12:39;10.40;;;9.20;;
15667;SDS011;7934;48.710;9.024;2023-01-28T14:15:18;11.10;;;9.40;;
15667;SDS011;7934;48.710;9.024;2023-01-28T14:17:48;11.07;;;9.50;;
15667;SDS011;7934;48.710;9.024;2023-01-28T14:20:18;10.85;;;9.73;;
15667;SDS011;7934;48.710;9.024;2023-01-28T14:22:46;11.50;;;9.35;;
15667;SDS011;7934;48.710;9.024;2023-01-28T14:25:14;11.55;;;9.80;;
15667;SDS011;7934;48.710;9.024;2023-01-28T14:27:42;13.30;;;10.68;;
15667;SDS011;7934;48.710;9.024;2023-01-28T14:30:14;13.85;;;11.18;;
15667;SDS011;7934;48.710;9.024;2023-01-28T14:32:45;14.30;;;11.15;;
15667;SDS011;7934;48.710;9.024;2023-01-28T14:35:15;16.60;;;12.15;;
15667;SDS011;7934;48.710;9.024;2023-01-28T14:37:46;16.63;;;11.82;;
15667;SDS011;7934;48.710;9.024;2023-01-28T14:40:13;17.73;;;12.87;;
15667;SDS011;7934;48.710;9.024;2023-01-28T14:42:41;16.30;;;12.23;;
15667;SDS011;7934;48.710;9.024;2023-01-28T14:45:15;15.68;;;11.82;;
15667;SDS011;7934;48.710;9.024;2023-01-28T14:50:32;15.10;;;12.10;;
15667;SDS011;7934;48.710;9.024;2023-01-28T14:53:12;16.83;;;12.37;;
15667;SDS011;7934;48.710;9.024;2023-01-28T14:55:44;15.40;;;11.30;;
15667;SDS011;7934;48.710;9.024;2023-01-28T14:58:15;14.43;;;11.50;;
15667;SDS011;7934;48.710;9.024;2023-01-28T15:00:51;13.90;;;11.63;;
15667;SDS011;7934;48.710;9.024;2023-01-28T15:03:19;15.07;;;12.60;;